»·PEaware :: ASA457 KSNA-KSFO

ASA457 :: KSNA-KSFO

FLIGHT INFORMATION

Flight Status: Arrived
Operator:
Alaska Airlines
More flights by this operator :: More flights under this callsign
Pilot: Alan S. (10569)
Aircraft: AIRBUS A320
(A320)
More flights by this aircraft type
Origin: KSNA John Wayne-Orange Co
United States
Destination: KSFO San Francisco Intl
United States
More flights between these airports :: More routes between these airports
Route: HHERO3 IKAYE RIZIN SPLNT STOKD SERFR SERFR3
File this flight plan on PilotEdge
Remarks: Alaska
Altitude:
(Current/Filed)
28,000ft
Speed:
(Current/Filed)
447kts
Departed: 30-Sep-18 08:57 PM
Arrived: 30-Sep-18 09:55 PM
Distance/Time
Traveled:
323nm/0:58
Distance/Time
To Go:
Arrived

Flight Plot

Page will automatically refresh every two minutes.

Flight plan parsing failed; only flown route is shown


Map Options




Map Legend


Flown Route
Filed Route
Departure Airport
Arrival Airport
Navaid (VOR, NDB)
Fix

Horizontal Profiles

Position Reports

Time Latitude Longitude Heading Altitude Ground
Speed
30-Sep-18 20:33 33.679326 -117.862331 116 65ft 0kts
30-Sep-18 20:34 33.679326 -117.862331 116 65ft 0kts
30-Sep-18 20:35 33.679326 -117.862331 116 65ft 0kts
30-Sep-18 20:36 33.679326 -117.862331 116 65ft 0kts
30-Sep-18 20:37 33.679326 -117.862331 116 65ft 0kts
30-Sep-18 20:38 33.679326 -117.862331 116 65ft 0kts
30-Sep-18 20:39 33.679326 -117.862331 116 65ft 0kts
30-Sep-18 20:40 33.679326 -117.862331 116 65ft 0kts
30-Sep-18 20:41 33.679326 -117.862331 116 65ft 0kts
30-Sep-18 20:42 33.679326 -117.862331 116 65ft 0kts
30-Sep-18 20:43 33.679326 -117.862331 116 65ft 0kts
30-Sep-18 20:44 33.679326 -117.862331 116 65ft 0kts
30-Sep-18 20:45 33.679326 -117.862331 116 65ft 0kts
30-Sep-18 20:46 33.679326 -117.862331 116 65ft 0kts
30-Sep-18 20:47 33.679326 -117.862331 116 65ft 0kts
30-Sep-18 20:48 33.679326 -117.862331 116 65ft 0kts
30-Sep-18 20:49 33.679326 -117.862331 116 65ft 0kts
30-Sep-18 20:50 33.679327 -117.862332 116 65ft 0kts
30-Sep-18 20:51 33.679329 -117.862338 116 65ft 1kts
30-Sep-18 20:52 33.679435 -117.862941 67 65ft 2kts
30-Sep-18 20:53 33.679197 -117.863236 27 65ft 0kts
30-Sep-18 20:54 33.679197 -117.863236 27 65ft 0kts
30-Sep-18 20:55 33.679197 -117.863236 27 65ft 0kts
30-Sep-18 20:56 33.679197 -117.863236 27 65ft 0kts
30-Sep-18 20:57 33.679551 -117.863013 27 65ft 5kts
30-Sep-18 20:58 33.681084 -117.864118 297 65ft 7kts
30-Sep-18 20:59 33.677558 -117.867619 207 65ft 100kts
30-Sep-18 21:00 33.637103 -117.890224 189 2129ft 201kts
30-Sep-18 21:01 33.570477 -117.902992 203 4856ft 273kts
30-Sep-18 21:02 33.511830 -117.963080 225 7753ft 276kts
30-Sep-18 21:03 33.464359 -118.033888 239 8483ft 278kts
30-Sep-18 21:04 33.424253 -118.116527 238 11206ft 313kts
30-Sep-18 21:05 33.425578 -118.228309 281 12724ft 378kts
30-Sep-18 21:06 33.460293 -118.347764 295 14032ft 385kts
30-Sep-18 21:07 33.509740 -118.461063 295 14033ft 387kts
30-Sep-18 21:08 33.591091 -118.546109 322 14371ft 399kts
30-Sep-18 21:09 33.682516 -118.622626 322 16534ft 413kts
30-Sep-18 21:10 33.774908 -118.700024 321 18517ft 424kts
30-Sep-18 21:11 33.872558 -118.781995 320 20322ft 435kts
30-Sep-18 21:12 33.972728 -118.866321 320 21999ft 445kts
30-Sep-18 21:13 34.075002 -118.952674 320 23558ft 453kts
30-Sep-18 21:14 34.164243 -119.050932 297 24875ft 445kts
30-Sep-18 21:15 34.229545 -119.177944 296 26115ft 451kts
30-Sep-18 21:16 34.296031 -119.307376 296 27355ft 454kts
30-Sep-18 21:17 34.361839 -119.435973 296 27965ft 450kts
30-Sep-18 21:18 34.433782 -119.560412 309 27952ft 461kts
30-Sep-18 21:19 34.521930 -119.668709 308 27956ft 460kts
30-Sep-18 21:20 34.611514 -119.779262 308 27961ft 460kts
30-Sep-18 21:21 34.701144 -119.890210 308 27984ft 460kts
30-Sep-18 21:22 34.790473 -120.001143 308 28002ft 460kts
30-Sep-18 21:23 34.879679 -120.112287 308 27994ft 460kts
30-Sep-18 21:24 34.968749 -120.223631 308 27982ft 461kts
30-Sep-18 21:25 35.058167 -120.335780 308 27983ft 463kts
30-Sep-18 21:26 35.150297 -120.442864 311 27990ft 466kts
30-Sep-18 21:27 35.244564 -120.548645 311 27982ft 466kts
30-Sep-18 21:28 35.338034 -120.653852 311 27980ft 465kts
30-Sep-18 21:29 35.432953 -120.761038 311 27983ft 466kts
30-Sep-18 21:30 35.532362 -120.863472 317 27977ft 471kts
30-Sep-18 21:31 35.636389 -120.960102 317 27976ft 471kts
30-Sep-18 21:32 35.740466 -121.057088 317 27982ft 470kts
30-Sep-18 21:33 35.844210 -121.154081 317 27981ft 468kts
30-Sep-18 21:34 35.947200 -121.250691 317 27972ft 466kts
30-Sep-18 21:35 36.049970 -121.347398 318 27964ft 465kts
30-Sep-18 21:36 36.152620 -121.430363 323 27726ft 468kts
30-Sep-18 21:37 36.254413 -121.509950 323 26174ft 459kts
30-Sep-18 21:38 36.360040 -121.592779 323 23781ft 445kts
30-Sep-18 21:39 36.455692 -121.667988 323 22264ft 414kts
30-Sep-18 21:40 36.548489 -121.741258 323 20723ft 389kts
30-Sep-18 21:41 36.638478 -121.812485 323 18675ft 380kts
30-Sep-18 21:42 36.726323 -121.882193 324 16638ft 371kts
30-Sep-18 21:43 36.824919 -121.917469 345 14596ft 369kts
30-Sep-18 21:44 36.923005 -121.944917 345 12737ft 356kts
30-Sep-18 21:45 37.016334 -121.978278 341 10851ft 345kts
30-Sep-18 21:46 37.101778 -122.011667 342 9922ft 310kts
30-Sep-18 21:47 37.180796 -122.042571 343 8589ft 299kts
30-Sep-18 21:48 37.258250 -122.072953 344 7269ft 288kts
30-Sep-18 21:49 37.332145 -122.101995 340 6215ft 267kts
30-Sep-18 21:50 37.398982 -122.128249 340 5206ft 234kts
30-Sep-18 21:51 37.459490 -122.151693 345 4330ft 220kts
30-Sep-18 21:52 37.516915 -122.168383 345 3835ft 199kts
30-Sep-18 21:53 37.551653 -122.215313 298 2815ft 202kts
30-Sep-18 21:54 37.576314 -122.274343 298 1480ft 166kts
30-Sep-18 21:55 37.595357 -122.319406 298 748ft 130kts
30-Sep-18 21:56 37.612518 -122.360170 297 46ft 129kts
30-Sep-18 21:57 37.618786 -122.378695 231 21ft 7kts
30-Sep-18 21:58 37.617845 -122.380691 256 21ft 0kts

Navigation Log

Ident Type
Flight plan parsing failed, navigation log unavailable